sensor_id;sensor_type;location;lat;lon;timestamp;temperature;humidity
3281;DHT22;1652;51.31805600;6.20194400;2023-11-22T00:01:06;5.80;99.90
3281;DHT22;1652;51.31805600;6.20194400;2023-11-22T00:03:33;5.70;99.90
3281;DHT22;1652;51.31805600;6.20194400;2023-11-22T00:06:00;5.70;99.90
3281;DHT22;1652;51.31805600;6.20194400;2023-11-22T00:08:28;5.60;99.90
3281;DHT22;1652;51.31805600;6.20194400;2023-11-22T00:10:56;5.50;99.90
3281;DHT22;1652;51.31805600;6.20194400;2023-11-22T00:13:23;5.50;99.90
3281;DHT22;1652;51.31805600;6.20194400;2023-11-22T00:15:50;5.40;99.90
3281;DHT22;1652;51.31805600;6.20194400;2023-11-22T00:18:17;5.40;99.90
3281;DHT22;1652;51.31805600;6.20194400;2023-11-22T00:20:44;5.30;99.90
3281;DHT22;1652;51.31805600;6.20194400;2023-11-22T00:23:14;5.30;99.90
3281;DHT22;1652;51.31805600;6.20194400;2023-11-22T00:25:41;5.20;99.90
3281;DHT22;1652;51.31805600;6.20194400;2023-11-22T00:28:09;5.10;99.90
3281;DHT22;1652;51.31805600;6.20194400;2023-11-22T00:30:36;5.10;99.90
3281;DHT22;1652;51.31805600;6.20194400;2023-11-22T00:33:03;5.00;99.90
3281;DHT22;1652;51.31805600;6.20194400;2023-11-22T00:35:31;5.00;99.90
3281;DHT22;1652;51.31805600;6.20194400;2023-11-22T00:37:58;4.90;99.90
3281;DHT22;1652;51.31805600;6.20194400;2023-11-22T00:40:25;5.00;99.90
3281;DHT22;1652;51.31805600;6.20194400;2023-11-22T00:42:52;4.90;99.90
3281;DHT22;1652;51.31805600;6.20194400;2023-11-22T00:45:19;4.90;99.90
3281;DHT22;1652;51.31805600;6.20194400;2023-11-22T00:47:46;4.80;99.90
3281;DHT22;1652;51.31805600;6.20194400;2023-11-22T00:50:13;4.80;99.90
3281;DHT22;1652;51.31805600;6.20194400;2023-11-22T00:52:40;4.80;99.90
3281;DHT22;1652;51.31805600;6.20194400;2023-11-22T00:55:12;4.90;99.90
3281;DHT22;1652;51.31805600;6.20194400;2023-11-22T00:57:39;4.90;99.90
3281;DHT22;1652;51.31805600;6.20194400;2023-11-22T01:00:07;4.90;99.90
3281;DHT22;1652;51.31805600;6.20194400;2023-11-22T01:02:37;4.80;99.90
3281;DHT22;1652;51.31805600;6.20194400;2023-11-22T01:05:06;4.80;99.90
3281;DHT22;1652;51.31805600;6.20194400;2023-11-22T01:07:38;4.70;99.90
3281;DHT22;1652;51.31805600;6.20194400;2023-11-22T01:10:06;4.70;99.90
3281;DHT22;1652;51.31805600;6.20194400;2023-11-22T01:12:33;4.60;99.90
3281;DHT22;1652;51.31805600;6.20194400;2023-11-22T01:15:00;4.70;99.90
3281;DHT22;1652;51.31805600;6.20194400;2023-11-22T01:17:27;4.60;99.90
3281;DHT22;1652;51.31805600;6.20194400;2023-11-22T01:19:54;4.60;99.90
3281;DHT22;1652;51.31805600;6.20194400;2023-11-22T01:22:21;4.60;99.90
3281;DHT22;1652;51.31805600;6.20194400;2023-11-22T01:24:48;4.60;99.90
3281;DHT22;1652;51.31805600;6.20194400;2023-11-22T01:27:15;4.70;99.90
3281;DHT22;1652;51.31805600;6.20194400;2023-11-22T01:29:42;4.70;99.90
3281;DHT22;1652;51.31805600;6.20194400;2023-11-22T01:32:09;4.70;99.90
3281;DHT22;1652;51.31805600;6.20194400;2023-11-22T01:34:36;4.60;99.90
3281;DHT22;1652;51.31805600;6.20194400;2023-11-22T01:37:03;4.60;99.90
3281;DHT22;1652;51.31805600;6.20194400;2023-11-22T01:39:31;4.60;99.90
3281;DHT22;1652;51.31805600;6.20194400;2023-11-22T01:41:58;4.60;99.90
3281;DHT22;1652;51.31805600;6.20194400;2023-11-22T01:44:26;4.40;99.90
3281;DHT22;1652;51.31805600;6.20194400;2023-11-22T01:46:53;4.40;99.90
3281;DHT22;1652;51.31805600;6.20194400;2023-11-22T01:49:21;4.30;99.90
3281;DHT22;1652;51.31805600;6.20194400;2023-11-22T01:51:50;4.30;99.90
3281;DHT22;1652;51.31805600;6.20194400;2023-11-22T01:54:18;4.40;99.90
3281;DHT22;1652;51.31805600;6.20194400;2023-11-22T01:56:46;4.50;99.90
3281;DHT22;1652;51.31805600;6.20194400;2023-11-22T01:59:13;4.50;99.90
3281;DHT22;1652;51.31805600;6.20194400;2023-11-22T02:01:42;4.50;99.90
3281;DHT22;1652;51.31805600;6.20194400;2023-11-22T02:04:12;4.70;99.90
3281;DHT22;1652;51.31805600;6.20194400;2023-11-22T02:06:39;4.60;99.90
3281;DHT22;1652;51.31805600;6.20194400;2023-11-22T02:09:06;4.60;99.90
3281;DHT22;1652;51.31805600;6.20194400;2023-11-22T02:11:35;4.60;99.90
3281;DHT22;1652;51.31805600;6.20194400;2023-11-22T02:14:02;4.70;99.90
3281;DHT22;1652;51.31805600;6.20194400;2023-11-22T02:16:29;4.60;99.90
3281;DHT22;1652;51.31805600;6.20194400;2023-11-22T02:18:56;4.60;99.90
3281;DHT22;1652;51.31805600;6.20194400;2023-11-22T02:21:23;4.60;99.90
3281;DHT22;1652;51.31805600;6.20194400;2023-11-22T02:23:50;4.70;99.90
3281;DHT22;1652;51.31805600;6.20194400;2023-11-22T02:26:17;4.60;99.90
3281;DHT22;1652;51.31805600;6.20194400;2023-11-22T02:28:45;4.60;99.90
3281;DHT22;1652;51.31805600;6.20194400;2023-11-22T02:31:12;4.60;99.90
3281;DHT22;1652;51.31805600;6.20194400;2023-11-22T02:33:39;4.60;99.90
3281;DHT22;1652;51.31805600;6.20194400;2023-11-22T02:36:07;4.60;99.90
3281;DHT22;1652;51.31805600;6.20194400;2023-11-22T02:38:34;4.60;99.90
3281;DHT22;1652;51.31805600;6.20194400;2023-11-22T02:41:02;4.70;99.90
3281;DHT22;1652;51.31805600;6.20194400;2023-11-22T02:43:31;4.60;99.90
3281;DHT22;1652;51.31805600;6.20194400;2023-11-22T02:45:58;4.50;99.90
3281;DHT22;1652;51.31805600;6.20194400;2023-11-22T02:48:24;4.60;99.90
3281;DHT22;1652;51.31805600;6.20194400;2023-11-22T02:50:51;4.60;99.90
3281;DHT22;1652;51.31805600;6.20194400;2023-11-22T02:53:21;4.70;99.90
3281;DHT22;1652;51.31805600;6.20194400;2023-11-22T02:55:48;4.60;99.90
3281;DHT22;1652;51.31805600;6.20194400;2023-11-22T02:58:15;4.50;99.90
3281;DHT22;1652;51.31805600;6.20194400;2023-11-22T03:00:43;4.50;99.90
3281;DHT22;1652;51.31805600;6.20194400;2023-11-22T03:03:10;4.50;99.90
3281;DHT22;1652;51.31805600;6.20194400;2023-11-22T03:05:38;4.60;99.90
3281;DHT22;1652;51.31805600;6.20194400;2023-11-22T03:08:07;4.60;99.90
3281;DHT22;1652;51.31805600;6.20194400;2023-11-22T03:10:34;4.60;99.90
3281;DHT22;1652;51.31805600;6.20194400;2023-11-22T03:13:02;4.70;99.90
3281;DHT22;1652;51.31805600;6.20194400;2023-11-22T03:15:29;4.60;99.90
3281;DHT22;1652;51.31805600;6.20194400;2023-11-22T03:17:56;4.60;99.90
3281;DHT22;1652;51.31805600;6.20194400;2023-11-22T03:20:23;4.60;99.90
3281;DHT22;1652;51.31805600;6.20194400;2023-11-22T03:22:50;4.70;99.90
3281;DHT22;1652;51.31805600;6.20194400;2023-11-22T03:25:17;4.60;99.90
3281;DHT22;1652;51.31805600;6.20194400;2023-11-22T03:27:44;4.80;99.90
3281;DHT22;1652;51.31805600;6.20194400;2023-11-22T03:30:13;4.80;99.90
3281;DHT22;1652;51.31805600;6.20194400;2023-11-22T03:32:42;4.70;99.90
3281;DHT22;1652;51.31805600;6.20194400;2023-11-22T03:35:11;4.60;99.90
3281;DHT22;1652;51.31805600;6.20194400;2023-11-22T03:37:39;4.60;99.90
3281;DHT22;1652;51.31805600;6.20194400;2023-11-22T03:40:06;4.50;99.90
3281;DHT22;1652;51.31805600;6.20194400;2023-11-22T03:42:36;4.70;99.90
3281;DHT22;1652;51.31805600;6.20194400;2023-11-22T03:45:05;4.60;99.90
3281;DHT22;1652;51.31805600;6.20194400;2023-11-22T03:47:32;4.70;99.90
3281;DHT22;1652;51.31805600;6.20194400;2023-11-22T03:50:06;4.70;99.90
3281;DHT22;1652;51.31805600;6.20194400;2023-11-22T03:52:33;4.60;99.90
3281;DHT22;1652;51.31805600;6.20194400;2023-11-22T03:55:00;4.70;99.90
3281;DHT22;1652;51.31805600;6.20194400;2023-11-22T03:57:27;4.50;99.90
3281;DHT22;1652;51.31805600;6.20194400;2023-11-22T03:59:54;4.50;99.90
3281;DHT22;1652;51.31805600;6.20194400;2023-11-22T04:02:21;4.50;99.90
3281;DHT22;1652;51.31805600;6.20194400;2023-11-22T04:04:48;4.50;99.90
3281;DHT22;1652;51.31805600;6.20194400;2023-11-22T04:07:15;4.70;99.90
3281;DHT22;1652;51.31805600;6.20194400;2023-11-22T04:09:41;4.60;99.90
3281;DHT22;1652;51.31805600;6.20194400;2023-11-22T04:12:09;4.60;99.90
3281;DHT22;1652;51.31805600;6.20194400;2023-11-22T04:14:36;4.60;99.90
3281;DHT22;1652;51.31805600;6.20194400;2023-11-22T04:17:04;4.70;99.90
3281;DHT22;1652;51.31805600;6.20194400;2023-11-22T04:19:31;4.60;99.90
3281;DHT22;1652;51.31805600;6.20194400;2023-11-22T04:21:58;4.70;99.90
3281;DHT22;1652;51.31805600;6.20194400;2023-11-22T04:24:25;4.70;99.90
3281;DHT22;1652;51.31805600;6.20194400;2023-11-22T04:26:53;4.50;99.90
3281;DHT22;1652;51.31805600;6.20194400;2023-11-22T04:29:20;4.40;99.90
3281;DHT22;1652;51.31805600;6.20194400;2023-11-22T04:31:47;4.50;99.90
3281;DHT22;1652;51.31805600;6.20194400;2023-11-22T04:34:14;4.50;99.90
3281;DHT22;1652;51.31805600;6.20194400;2023-11-22T04:36:41;4.60;99.90
3281;DHT22;1652;51.31805600;6.20194400;2023-11-22T04:39:08;4.60;99.90
3281;DHT22;1652;51.31805600;6.20194400;2023-11-22T04:41:36;4.60;99.90
3281;DHT22;1652;51.31805600;6.20194400;2023-11-22T04:44:04;4.50;99.90
3281;DHT22;1652;51.31805600;6.20194400;2023-11-22T04:46:31;4.50;99.90
3281;DHT22;1652;51.31805600;6.20194400;2023-11-22T04:48:58;4.40;99.90
3281;DHT22;1652;51.31805600;6.20194400;2023-11-22T04:51:25;4.30;99.90
3281;DHT22;1652;51.31805600;6.20194400;2023-11-22T04:53:53;4.30;99.90
3281;DHT22;1652;51.31805600;6.20194400;2023-11-22T04:56:20;4.30;99.90
3281;DHT22;1652;51.31805600;6.20194400;2023-11-22T04:58:47;4.30;99.90
3281;DHT22;1652;51.31805600;6.20194400;2023-11-22T05:01:13;4.20;99.90
3281;DHT22;1652;51.31805600;6.20194400;2023-11-22T05:03:45;4.10;99.90
3281;DHT22;1652;51.31805600;6.20194400;2023-11-22T05:06:12;4.10;99.90
3281;DHT22;1652;51.31805600;6.20194400;2023-11-22T05:08:39;4.00;99.90
3281;DHT22;1652;51.31805600;6.20194400;2023-11-22T05:11:06;4.00;99.90
3281;DHT22;1652;51.31805600;6.20194400;2023-11-22T05:13:34;3.90;99.90
3281;DHT22;1652;51.31805600;6.20194400;2023-11-22T05:16:01;3.90;99.90
3281;DHT22;1652;51.31805600;6.20194400;2023-11-22T05:18:28;3.80;99.90
3281;DHT22;1652;51.31805600;6.20194400;2023-11-22T05:20:55;3.80;99.90
3281;DHT22;1652;51.31805600;6.20194400;2023-11-22T05:23:22;3.80;99.90
3281;DHT22;1652;51.31805600;6.20194400;2023-11-22T05:25:49;3.60;99.90
3281;DHT22;1652;51.31805600;6.20194400;2023-11-22T05:28:16;3.60;99.90
3281;DHT22;1652;51.31805600;6.20194400;2023-11-22T05:30:43;3.60;99.90
3281;DHT22;1652;51.31805600;6.20194400;2023-11-22T05:33:10;3.70;99.90
3281;DHT22;1652;51.31805600;6.20194400;2023-11-22T05:35:37;3.80;99.90
3281;DHT22;1652;51.31805600;6.20194400;2023-11-22T05:38:04;3.70;99.90
3281;DHT22;1652;51.31805600;6.20194400;2023-11-22T05:40:31;3.60;99.90
3281;DHT22;1652;51.31805600;6.20194400;2023-11-22T05:42:58;3.60;99.90
3281;DHT22;1652;51.31805600;6.20194400;2023-11-22T05:45:25;3.50;99.90
3281;DHT22;1652;51.31805600;6.20194400;2023-11-22T05:47:52;3.60;99.90
3281;DHT22;1652;51.31805600;6.20194400;2023-11-22T05:50:19;3.50;99.90
3281;DHT22;1652;51.31805600;6.20194400;2023-11-22T05:52:46;3.40;99.90
3281;DHT22;1652;51.31805600;6.20194400;2023-11-22T05:55:13;3.50;99.90
3281;DHT22;1652;51.31805600;6.20194400;2023-11-22T05:57:41;3.60;99.90
3281;DHT22;1652;51.31805600;6.20194400;2023-11-22T06:00:09;3.60;99.90
3281;DHT22;1652;51.31805600;6.20194400;2023-11-22T06:02:36;3.60;99.90
3281;DHT22;1652;51.31805600;6.20194400;2023-11-22T06:05:06;3.70;99.90
3281;DHT22;1652;51.31805600;6.20194400;2023-11-22T06:07:34;3.70;99.90
3281;DHT22;1652;51.31805600;6.20194400;2023-11-22T06:10:01;3.70;99.90
3281;DHT22;1652;51.31805600;6.20194400;2023-11-22T06:12:29;3.80;99.90
3281;DHT22;1652;51.31805600;6.20194400;2023-11-22T06:14:56;3.60;99.90
3281;DHT22;1652;51.31805600;6.20194400;2023-11-22T06:17:23;3.60;99.90
3281;DHT22;1652;51.31805600;6.20194400;2023-11-22T06:19:51;3.60;99.90
3281;DHT22;1652;51.31805600;6.20194400;2023-11-22T06:22:18;3.50;99.90
3281;DHT22;1652;51.31805600;6.20194400;2023-11-22T06:24:46;3.50;99.90
3281;DHT22;1652;51.31805600;6.20194400;2023-11-22T06:27:15;3.50;99.90
3281;DHT22;1652;51.31805600;6.20194400;2023-11-22T06:29:42;3.60;99.90
3281;DHT22;1652;51.31805600;6.20194400;2023-11-22T06:32:11;3.60;99.90
3281;DHT22;1652;51.31805600;6.20194400;2023-11-22T06:34:38;3.60;99.90
3281;DHT22;1652;51.31805600;6.20194400;2023-11-22T06:37:06;3.60;99.90
3281;DHT22;1652;51.31805600;6.20194400;2023-11-22T06:39:35;3.60;99.90
3281;DHT22;1652;51.31805600;6.20194400;2023-11-22T06:42:02;3.70;99.90
3281;DHT22;1652;51.31805600;6.20194400;2023-11-22T06:44:29;3.50;99.90
3281;DHT22;1652;51.31805600;6.20194400;2023-11-22T06:46:56;3.40;99.90
3281;DHT22;1652;51.31805600;6.20194400;2023-11-22T06:49:23;3.30;99.90
3281;DHT22;1652;51.31805600;6.20194400;2023-11-22T06:51:50;3.20;99.90
3281;DHT22;1652;51.31805600;6.20194400;2023-11-22T06:54:19;3.40;99.90
3281;DHT22;1652;51.31805600;6.20194400;2023-11-22T06:56:47;3.40;99.90
3281;DHT22;1652;51.31805600;6.20194400;2023-11-22T06:59:14;3.30;99.90
3281;DHT22;1652;51.31805600;6.20194400;2023-11-22T07:01:41;3.50;99.90
3281;DHT22;1652;51.31805600;6.20194400;2023-11-22T07:04:08;3.30;99.90
3281;DHT22;1652;51.31805600;6.20194400;2023-11-22T07:06:37;3.30;99.90
3281;DHT22;1652;51.31805600;6.20194400;2023-11-22T07:09:05;3.20;99.90
3281;DHT22;1652;51.31805600;6.20194400;2023-11-22T07:11:32;3.10;99.90
3281;DHT22;1652;51.31805600;6.20194400;2023-11-22T07:13:59;3.20;99.90
3281;DHT22;1652;51.31805600;6.20194400;2023-11-22T07:16:26;3.30;99.90
3281;DHT22;1652;51.31805600;6.20194400;2023-11-22T07:18:56;3.40;99.90
3281;DHT22;1652;51.31805600;6.20194400;2023-11-22T07:21:22;3.40;99.90
3281;DHT22;1652;51.31805600;6.20194400;2023-11-22T07:23:49;3.30;99.90
3281;DHT22;1652;51.31805600;6.20194400;2023-11-22T07:26:19;3.30;99.90
3281;DHT22;1652;51.31805600;6.20194400;2023-11-22T07:28:46;3.30;99.90
3281;DHT22;1652;51.31805600;6.20194400;2023-11-22T07:31:13;3.40;99.90
3281;DHT22;1652;51.31805600;6.20194400;2023-11-22T07:33:41;3.40;99.90
3281;DHT22;1652;51.31805600;6.20194400;2023-11-22T07:36:08;3.40;99.90
3281;DHT22;1652;51.31805600;6.20194400;2023-11-22T07:38:36;3.50;99.90
3281;DHT22;1652;51.31805600;6.20194400;2023-11-22T07:41:05;3.70;99.90
3281;DHT22;1652;51.31805600;6.20194400;2023-11-22T07:43:34;3.60;99.90
3281;DHT22;1652;51.31805600;6.20194400;2023-11-22T07:46:08;3.70;99.90
3281;DHT22;1652;51.31805600;6.20194400;2023-11-22T07:48:41;3.70;99.90
3281;DHT22;1652;51.31805600;6.20194400;2023-11-22T07:51:08;3.80;99.90
3281;DHT22;1652;51.31805600;6.20194400;2023-11-22T07:53:35;3.90;99.90
3281;DHT22;1652;51.31805600;6.20194400;2023-11-22T07:56:02;4.00;99.90
3281;DHT22;1652;51.31805600;6.20194400;2023-11-22T07:58:33;4.10;99.90
3281;DHT22;1652;51.31805600;6.20194400;2023-11-22T08:01:00;4.00;99.90
3281;DHT22;1652;51.31805600;6.20194400;2023-11-22T08:03:31;4.00;99.90
3281;DHT22;1652;51.31805600;6.20194400;2023-11-22T08:05:58;3.90;99.90
3281;DHT22;1652;51.31805600;6.20194400;2023-11-22T08:08:25;4.00;99.90
3281;DHT22;1652;51.31805600;6.20194400;2023-11-22T08:10:52;4.00;99.90
3281;DHT22;1652;51.31805600;6.20194400;2023-11-22T08:13:20;4.00;99.90
3281;DHT22;1652;51.31805600;6.20194400;2023-11-22T08:15:49;4.00;99.90
3281;DHT22;1652;51.31805600;6.20194400;2023-11-22T08:18:17;4.00;99.90
3281;DHT22;1652;51.31805600;6.20194400;2023-11-22T08:20:44;4.00;99.90
3281;DHT22;1652;51.31805600;6.20194400;2023-11-22T08:23:11;4.00;99.90
3281;DHT22;1652;51.31805600;6.20194400;2023-11-22T08:25:40;4.00;99.90
3281;DHT22;1652;51.31805600;6.20194400;2023-11-22T08:28:10;4.00;99.90
3281;DHT22;1652;51.31805600;6.20194400;2023-11-22T08:30:37;4.10;99.90
3281;DHT22;1652;51.31805600;6.20194400;2023-11-22T08:33:04;3.90;99.90
3281;DHT22;1652;51.31805600;6.20194400;2023-11-22T08:35:31;3.90;99.90
3281;DHT22;1652;51.31805600;6.20194400;2023-11-22T08:37:58;4.10;99.90
3281;DHT22;1652;51.31805600;6.20194400;2023-11-22T08:40:25;4.10;99.90
3281;DHT22;1652;51.31805600;6.20194400;2023-11-22T08:42:53;4.10;99.90
3281;DHT22;1652;51.31805600;6.20194400;2023-11-22T08:45:20;4.30;99.90
3281;DHT22;1652;51.31805600;6.20194400;2023-11-22T08:47:47;4.70;99.90
3281;DHT22;1652;51.31805600;6.20194400;2023-11-22T08:50:14;4.60;99.90
3281;DHT22;1652;51.31805600;6.20194400;2023-11-22T08:52:42;4.70;99.90
3281;DHT22;1652;51.31805600;6.20194400;2023-11-22T08:55:12;4.70;99.90
3281;DHT22;1652;51.31805600;6.20194400;2023-11-22T08:57:41;4.90;99.90
3281;DHT22;1652;51.31805600;6.20194400;2023-11-22T09:00:09;4.90;99.90
3281;DHT22;1652;51.31805600;6.20194400;2023-11-22T09:02:37;4.70;99.90
3281;DHT22;1652;51.31805600;6.20194400;2023-11-22T09:05:07;4.80;99.90
3281;DHT22;1652;51.31805600;6.20194400;2023-11-22T09:07:40;4.70;99.90
3281;DHT22;1652;51.31805600;6.20194400;2023-11-22T09:10:07;4.70;99.90
3281;DHT22;1652;51.31805600;6.20194400;2023-11-22T09:12:38;4.90;99.90
3281;DHT22;1652;51.31805600;6.20194400;2023-11-22T09:15:12;5.00;99.90
3281;DHT22;1652;51.31805600;6.20194400;2023-11-22T09:17:43;5.00;99.90
3281;DHT22;1652;51.31805600;6.20194400;2023-11-22T09:20:11;5.10;99.90
3281;DHT22;1652;51.31805600;6.20194400;2023-11-22T09:22:49;5.10;99.90
3281;DHT22;1652;51.31805600;6.20194400;2023-11-22T09:25:17;5.20;99.90
3281;DHT22;1652;51.31805600;6.20194400;2023-11-22T09:27:47;5.20;99.90
3281;DHT22;1652;51.31805600;6.20194400;2023-11-22T09:30:16;5.30;99.90
3281;DHT22;1652;51.31805600;6.20194400;2023-11-22T09:33:06;5.40;99.90
3281;DHT22;1652;51.31805600;6.20194400;2023-11-22T09:35:34;5.30;99.90
3281;DHT22;1652;51.31805600;6.20194400;2023-11-22T09:38:06;5.40;99.90
3281;DHT22;1652;51.31805600;6.20194400;2023-11-22T09:40:44;5.40;99.90
3281;DHT22;1652;51.31805600;6.20194400;2023-11-22T09:43:13;5.80;99.90
3281;DHT22;1652;51.31805600;6.20194400;2023-11-22T09:45:46;5.70;99.90
3281;DHT22;1652;51.31805600;6.20194400;2023-11-22T09:48:18;5.70;99.90
3281;DHT22;1652;51.31805600;6.20194400;2023-11-22T09:51:04;5.90;99.90
3281;DHT22;1652;51.31805600;6.20194400;2023-11-22T09:53:40;6.00;99.90
3281;DHT22;1652;51.31805600;6.20194400;2023-11-22T09:56:08;6.00;99.90
3281;DHT22;1652;51.31805600;6.20194400;2023-11-22T09:58:40;5.80;99.90
3281;DHT22;1652;51.31805600;6.20194400;2023-11-22T10:01:11;5.90;99.90
3281;DHT22;1652;51.31805600;6.20194400;2023-11-22T10:03:40;5.90;99.90
3281;DHT22;1652;51.31805600;6.20194400;2023-11-22T10:06:08;6.00;99.90
3281;DHT22;1652;51.31805600;6.20194400;2023-11-22T10:08:35;6.00;99.90
3281;DHT22;1652;51.31805600;6.20194400;2023-11-22T10:11:04;6.00;99.90
3281;DHT22;1652;51.31805600;6.20194400;2023-11-22T10:13:31;6.10;99.90
3281;DHT22;1652;51.31805600;6.20194400;2023-11-22T10:16:10;6.20;99.90
3281;DHT22;1652;51.31805600;6.20194400;2023-11-22T10:18:42;6.30;99.90
3281;DHT22;1652;51.31805600;6.20194400;2023-11-22T10:21:28;6.30;99.90
3281;DHT22;1652;51.31805600;6.20194400;2023-11-22T10:24:00;6.40;99.90
3281;DHT22;1652;51.31805600;6.20194400;2023-11-22T10:26:29;6.50;99.90
3281;DHT22;1652;51.31805600;6.20194400;2023-11-22T10:28:57;6.70;99.90
3281;DHT22;1652;51.31805600;6.20194400;2023-11-22T10:31:25;6.70;99.90
3281;DHT22;1652;51.31805600;6.20194400;2023-11-22T10:33:53;6.70;99.90
3281;DHT22;1652;51.31805600;6.20194400;2023-11-22T10:36:23;6.80;99.90
3281;DHT22;1652;51.31805600;6.20194400;2023-11-22T10:38:50;7.00;99.90
3281;DHT22;1652;51.31805600;6.20194400;2023-11-22T10:41:21;7.00;99.90
3281;DHT22;1652;51.31805600;6.20194400;2023-11-22T10:43:52;7.00;99.90
3281;DHT22;1652;51.31805600;6.20194400;2023-11-22T10:46:19;7.10;99.90
3281;DHT22;1652;51.31805600;6.20194400;2023-11-22T10:48:48;7.00;99.90
3281;DHT22;1652;51.31805600;6.20194400;2023-11-22T10:51:15;7.10;99.90
3281;DHT22;1652;51.31805600;6.20194400;2023-11-22T10:53:48;6.90;99.90
3281;DHT22;1652;51.31805600;6.20194400;2023-11-22T10:56:19;6.90;99.90
3281;DHT22;1652;51.31805600;6.20194400;2023-11-22T10:58:55;6.90;99.90
3281;DHT22;1652;51.31805600;6.20194400;2023-11-22T11:01:25;6.80;99.90
3281;DHT22;1652;51.31805600;6.20194400;2023-11-22T11:04:02;6.90;99.90
3281;DHT22;1652;51.31805600;6.20194400;2023-11-22T11:06:35;7.00;99.90
3281;DHT22;1652;51.31805600;6.20194400;2023-11-22T11:09:04;7.10;99.90
3281;DHT22;1652;51.31805600;6.20194400;2023-11-22T11:11:38;7.20;28.40
3281;DHT22;1652;51.31805600;6.20194400;2023-11-22T11:14:08;7.20;43.00
3281;DHT22;1652;51.31805600;6.20194400;2023-11-22T11:16:39;7.30;6.30
3281;DHT22;1652;51.31805600;6.20194400;2023-11-22T11:19:09;7.30;10.00
3281;DHT22;1652;51.31805600;6.20194400;2023-11-22T11:21:36;7.40;1.00
3281;DHT22;1652;51.31805600;6.20194400;2023-11-22T11:24:03;7.40;99.90
3281;DHT22;1652;51.31805600;6.20194400;2023-11-22T11:26:34;7.50;1.00
3281;DHT22;1652;51.31805600;6.20194400;2023-11-22T11:29:02;7.60;1.00
3281;DHT22;1652;51.31805600;6.20194400;2023-11-22T11:31:32;7.60;99.90
3281;DHT22;1652;51.31805600;6.20194400;2023-11-22T11:34:05;7.50;1.00
3281;DHT22;1652;51.31805600;6.20194400;2023-11-22T11:36:33;7.50;1.00
3281;DHT22;1652;51.31805600;6.20194400;2023-11-22T11:39:03;7.40;45.60
3281;DHT22;1652;51.31805600;6.20194400;2023-11-22T11:41:33;7.40;1.00
3281;DHT22;1652;51.31805600;6.20194400;2023-11-22T11:44:01;7.30;99.90
3281;DHT22;1652;51.31805600;6.20194400;2023-11-22T11:46:30;7.20;1.00
3281;DHT22;1652;51.31805600;6.20194400;2023-11-22T11:48:57;7.20;99.90
3281;DHT22;1652;51.31805600;6.20194400;2023-11-22T11:51:26;7.10;2.80
3281;DHT22;1652;51.31805600;6.20194400;2023-11-22T11:53:54;7.00;1.00
3281;DHT22;1652;51.31805600;6.20194400;2023-11-22T11:56:22;7.10;3.80
3281;DHT22;1652;51.31805600;6.20194400;2023-11-22T11:58:50;7.10;99.90
3281;DHT22;1652;51.31805600;6.20194400;2023-11-22T12:01:18;7.30;1.00
3281;DHT22;1652;51.31805600;6.20194400;2023-11-22T12:03:47;7.20;1.00
3281;DHT22;1652;51.31805600;6.20194400;2023-11-22T12:06:19;7.30;1.00
3281;DHT22;1652;51.31805600;6.20194400;2023-11-22T12:08:47;7.30;1.00
3281;DHT22;1652;51.31805600;6.20194400;2023-11-22T12:11:15;7.30;9.30
3281;DHT22;1652;51.31805600;6.20194400;2023-11-22T12:13:43;7.30;1.00
3281;DHT22;1652;51.31805600;6.20194400;2023-11-22T12:16:16;7.20;1.00
3281;DHT22;1652;51.31805600;6.20194400;2023-11-22T12:18:49;7.00;99.90
3281;DHT22;1652;51.31805600;6.20194400;2023-11-22T12:21:17;6.80;11.50
3281;DHT22;1652;51.31805600;6.20194400;2023-11-22T12:23:46;6.70;99.90
3281;DHT22;1652;51.31805600;6.20194400;2023-11-22T12:26:16;6.60;99.90
3281;DHT22;1652;51.31805600;6.20194400;2023-11-22T12:28:49;6.50;99.90
3281;DHT22;1652;51.31805600;6.20194400;2023-11-22T12:31:29;6.40;99.90
3281;DHT22;1652;51.31805600;6.20194400;2023-11-22T12:34:03;6.30;99.90
3281;DHT22;1652;51.31805600;6.20194400;2023-11-22T12:36:33;6.40;1.00
3281;DHT22;1652;51.31805600;6.20194400;2023-11-22T12:39:02;6.40;1.00
3281;DHT22;1652;51.31805600;6.20194400;2023-11-22T12:41:30;6.50;1.00
3281;DHT22;1652;51.31805600;6.20194400;2023-11-22T12:44:06;6.50;99.90
3281;DHT22;1652;51.31805600;6.20194400;2023-11-22T12:46:51;6.60;99.90
3281;DHT22;1652;51.31805600;6.20194400;2023-11-22T12:49:25;6.70;99.90
3281;DHT22;1652;51.31805600;6.20194400;2023-11-22T12:51:56;6.70;99.90
3281;DHT22;1652;51.31805600;6.20194400;2023-11-22T12:54:26;6.80;1.00
3281;DHT22;1652;51.31805600;6.20194400;2023-11-22T12:56:54;6.70;10.40
3281;DHT22;1652;51.31805600;6.20194400;2023-11-22T12:59:26;6.80;1.00
3281;DHT22;1652;51.31805600;6.20194400;2023-11-22T13:02:00;6.70;99.90
3281;DHT22;1652;51.31805600;6.20194400;2023-11-22T13:04:28;6.70;1.00
3281;DHT22;1652;51.31805600;6.20194400;2023-11-22T13:06:58;6.70;99.90
3281;DHT22;1652;51.31805600;6.20194400;2023-11-22T13:09:27;6.70;99.90
3281;DHT22;1652;51.31805600;6.20194400;2023-11-22T13:11:54;6.60;1.00
3281;DHT22;1652;51.31805600;6.20194400;2023-11-22T13:14:21;6.50;1.00
3281;DHT22;1652;51.31805600;6.20194400;2023-11-22T13:16:50;6.50;99.90
3281;DHT22;1652;51.31805600;6.20194400;2023-11-22T13:19:17;6.60;1.00
3281;DHT22;1652;51.31805600;6.20194400;2023-11-22T13:21:43;6.60;99.90
3281;DHT22;1652;51.31805600;6.20194400;2023-11-22T13:24:11;6.60;1.00
3281;DHT22;1652;51.31805600;6.20194400;2023-11-22T13:26:40;6.60;1.00
3281;DHT22;1652;51.31805600;6.20194400;2023-11-22T13:29:07;6.70;1.00
3281;DHT22;1652;51.31805600;6.20194400;2023-11-22T13:31:34;6.80;99.90
3281;DHT22;1652;51.31805600;6.20194400;2023-11-22T13:34:01;7.00;1.00
3281;DHT22;1652;51.31805600;6.20194400;2023-11-22T13:36:28;7.00;1.00
3281;DHT22;1652;51.31805600;6.20194400;2023-11-22T13:38:56;7.10;1.00
3281;DHT22;1652;51.31805600;6.20194400;2023-11-22T13:41:23;7.20;99.90
3281;DHT22;1652;51.31805600;6.20194400;2023-11-22T13:43:52;7.20;1.00
3281;DHT22;1652;51.31805600;6.20194400;2023-11-22T13:46:19;7.30;1.00
3281;DHT22;1652;51.31805600;6.20194400;2023-11-22T13:48:47;7.30;99.90
3281;DHT22;1652;51.31805600;6.20194400;2023-11-22T13:51:14;7.40;1.00
3281;DHT22;1652;51.31805600;6.20194400;2023-11-22T13:53:41;7.30;1.00
3281;DHT22;1652;51.31805600;6.20194400;2023-11-22T13:56:11;7.20;1.00
3281;DHT22;1652;51.31805600;6.20194400;2023-11-22T13:58:41;7.10;1.00
3281;DHT22;1652;51.31805600;6.20194400;2023-11-22T14:01:08;7.00;99.90
3281;DHT22;1652;51.31805600;6.20194400;2023-11-22T14:03:40;7.00;99.90
3281;DHT22;1652;51.31805600;6.20194400;2023-11-22T14:06:07;7.00;1.00